Time;durP1;ratioP1;P1;durP2;ratioP2;P2;SDS_P1;SDS_P2;PMS_P1;PMS_P2;Temp;Humidity;BMP_temperature;BMP_pressure;BME280_temperature;BME280_humidity;BME280_pressure;Samples;Min_cycle;Max_cycle;Signal;HPM_P1;HPM_P2
2021/12/23 00:01:18;;;;;;;;;46.75;39.25;;;;;4.25;57.11;101310.13;5080325;28;45509;-65
2021/12/23 00:03:43;;;;;;;;;57.25;43.25;;;;;4.26;57.54;101306.63;5078430;27;45497;-65
2021/12/23 00:06:09;;;;;;;;;46.50;40.00;;;;;4.30;56.98;101306.63;5085176;27;45441;-64
2021/12/23 00:08:34;;;;;;;;;48.00;43.75;;;;;4.31;57.45;101313.66;5080363;28;46150;-65
2021/12/23 00:11:00;;;;;;;;;59.25;44.00;;;;;4.32;56.80;101315.44;5079832;27;45398;-65
2021/12/23 00:13:25;;;;;;;;;49.50;42.50;;;;;4.31;56.99;101311.94;5081056;28;45307;-65
2021/12/23 00:18:42;;;;;;;;;49.75;41.25;;;;;4.22;57.00;101291.63;5079451;28;45481;-64
2021/12/23 00:23:56;;;;;;;;;44.50;39.00;;;;;4.23;56.84;101281.94;5081570;28;45440;-66
2021/12/23 00:26:22;;;;;;;;;54.25;42.00;;;;;4.25;56.81;101274.91;5081085;28;45473;-65
2021/12/23 00:28:48;;;;;;;;;47.50;39.75;;;;;4.24;56.86;101278.41;5080817;28;46116;-66
2021/12/23 00:31:15;;;;;;;;;59.00;43.50;;;;;4.27;57.20;101286.34;5081035;28;45256;-67
2021/12/23 00:33:41;;;;;;;;;44.75;40.00;;;;;4.25;57.64;101282.81;5080789;28;45268;-67
2021/12/23 00:36:09;;;;;;;;;48.25;39.75;;;;;4.25;57.06;101274.91;5080435;28;45526;-66
2021/12/23 00:38:41;;;;;;;;;54.00;43.25;;;;;4.24;57.44;101281.06;5081223;28;45319;-65
2021/12/23 00:41:08;;;;;;;;;52.00;44.25;;;;;4.12;57.54;101258.13;5059251;28;45863;-66
2021/12/23 00:43:34;;;;;;;;;60.25;42.00;;;;;4.18;56.97;101267.84;5081136;27;45730;-66
2021/12/23 00:46:00;;;;;;;;;51.00;43.75;;;;;4.13;57.37;101272.25;5081253;28;45311;-66
2021/12/23 00:48:26;;;;;;;;;52.75;43.50;;;;;4.13;57.20;101272.25;5080394;28;45342;-67
2021/12/23 00:50:52;;;;;;;;;52.50;43.50;;;;;4.17;57.10;101269.59;5079882;28;45515;-66
2021/12/23 00:53:20;;;;;;;;;51.25;43.00;;;;;4.12;57.21;101258.13;5080710;27;45548;-67
2021/12/23 00:55:49;;;;;;;;;59.00;45.00;;;;;4.12;57.81;101251.97;5080525;27;45465;-66
2021/12/23 00:58:15;;;;;;;;;47.50;43.00;;;;;4.10;57.09;101245.81;5080917;28;45562;-66
2021/12/23 01:00:42;;;;;;;;;53.50;43.00;;;;;4.09;57.12;101255.47;5060907;28;46050;-66
2021/12/23 01:03:08;;;;;;;;;46.25;40.25;;;;;4.07;58.11;101251.94;5080972;27;45335;-66
2021/12/23 01:05:33;;;;;;;;;63.00;44.75;;;;;4.06;57.35;101253.72;5080967;28;45603;-65
2021/12/23 01:07:59;;;;;;;;;46.50;37.75;;;;;4.02;57.58;101249.28;5085154;27;45373;-66
2021/12/23 01:10:25;;;;;;;;;49.50;41.00;;;;;3.99;57.97;101235.19;5088725;27;45497;-66
2021/12/23 01:12:57;;;;;;;;;55.75;41.75;;;;;3.97;57.45;101229.91;5088017;28;45297;-66
2021/12/23 01:17:59;;;;;;;;;53.00;42.25;;;;;3.97;58.18;101239.59;5087096;27;45729;-66
2021/12/23 01:20:28;;;;;;;;;54.75;42.50;;;;;3.92;57.96;101231.66;5069070;28;45319;-66
2021/12/23 01:22:56;;;;;;;;;50.00;40.25;;;;;3.90;57.71;101236.06;5087384;28;45383;-66
2021/12/23 01:25:22;;;;;;;;;55.25;44.25;;;;;3.92;58.18;101236.94;5100740;27;45517;-67
2021/12/23 01:27:48;;;;;;;;;49.50;43.00;;;;;3.97;58.17;101240.47;5089996;27;46188;-66
2021/12/23 01:30:17;;;;;;;;;56.00;45.25;;;;;3.95;57.46;101228.16;5086676;27;45362;-66
2021/12/23 01:32:43;;;;;;;;;44.75;39.00;;;;;3.98;58.10;101226.41;5069095;28;45363;-66
2021/12/23 01:35:09;;;;;;;;;50.50;39.25;;;;;3.96;57.59;101214.94;5086132;27;45477;-66
2021/12/23 01:37:35;;;;;;;;;44.50;38.50;;;;;3.97;58.65;101224.63;5086426;27;46345;-66
2021/12/23 01:40:00;;;;;;;;;50.75;41.25;;;;;3.90;58.14;101213.16;5086090;28;45267;-66
2021/12/23 01:42:25;;;;;;;;;41.75;36.75;;;;;3.95;57.66;101214.94;5086603;27;45430;-66
2021/12/23 01:44:51;;;;;;;;;43.75;40.00;;;;;4.02;57.75;101227.28;5086144;27;45366;-66
2021/12/23 01:47:16;;;;;;;;;58.50;43.75;;;;;3.99;57.70;101221.97;5085039;28;46279;-65
2021/12/23 01:49:41;;;;;;;;;38.50;35.25;;;;;3.96;57.99;101212.31;5085328;27;45307;-66
2021/12/23 01:52:07;;;;;;;;;51.25;43.50;;;;;4.02;58.67;101217.59;5086048;28;45673;-66
2021/12/23 01:54:33;;;;;;;;;49.50;40.00;;;;;4.02;58.15;101214.94;5086520;27;45193;-66
2021/12/23 01:56:58;;;;;;;;;51.25;39.00;;;;;4.03;58.45;101214.06;5087097;27;45314;-66
2021/12/23 01:59:24;;;;;;;;;45.75;41.00;;;;;4.06;58.56;101207.94;5086952;27;45323;-66
2021/12/23 02:01:50;;;;;;;;;56.25;41.50;;;;;4.04;57.67;101200.00;5089643;27;45613;-66
2021/12/23 02:04:15;;;;;;;;;60.00;44.25;;;;;4.04;57.99;101194.72;5084314;27;45296;-65
2021/12/23 02:06:40;;;;;;;;;49.75;41.75;;;;;4.04;58.26;101191.16;5085507;28;46638;-66
2021/12/23 02:09:07;;;;;;;;;53.50;43.25;;;;;4.10;58.14;101199.13;5085870;27;45474;-66
2021/12/23 02:11:32;;;;;;;;;54.75;37.25;;;;;4.06;58.19;101184.16;5085438;28;45411;-65
2021/12/23 02:13:58;;;;;;;;;45.50;42.75;;;;;4.08;58.17;101196.47;5085697;27;45769;-65
2021/12/23 02:16:23;;;;;;;;;43.00;37.50;;;;;4.12;58.05;101191.19;5085955;27;45955;-66
2021/12/23 02:18:49;;;;;;;;;55.50;44.75;;;;;4.11;57.70;101200.91;5082791;28;45466;-66
2021/12/23 02:21:14;;;;;;;;;51.50;43.00;;;;;4.08;57.75;101207.03;5082160;28;45253;-65
2021/12/23 02:23:40;;;;;;;;;47.00;39.50;;;;;4.05;57.90;101195.59;5080382;27;45498;-66
2021/12/23 02:26:05;;;;;;;;;47.50;39.25;;;;;4.05;58.35;101192.94;5082219;28;45335;-66
2021/12/23 02:28:31;;;;;;;;;47.00;42.50;;;;;4.08;58.64;101193.81;5082318;27;45541;-66
2021/12/23 02:30:56;;;;;;;;;44.50;39.00;;;;;4.07;57.85;101183.25;5081938;28;45469;-66
2021/12/23 02:33:25;;;;;;;;;56.50;41.75;;;;;4.09;58.83;101181.50;5081299;28;45490;-66
2021/12/23 02:35:53;;;;;;;;;44.00;40.50;;;;;4.09;58.13;101176.22;5081673;27;46092;-66
2021/12/23 02:38:18;;;;;;;;;61.00;43.25;;;;;4.09;58.28;101173.56;5082133;27;45828;-66
2021/12/23 02:40:44;;;;;;;;;51.50;41.75;;;;;4.02;58.62;101167.38;5084483;27;45373;-66
2021/12/23 02:43:18;;;;;;;;;51.50;42.25;;;;;4.05;58.56;101177.97;5081709;27;45664;-66
2021/12/23 02:45:46;;;;;;;;;49.50;42.00;;;;;4.06;58.66;101171.81;5082005;28;45398;-66
2021/12/23 02:48:15;;;;;;;;;50.75;42.75;;;;;4.07;58.09;101167.41;5080967;28;45877;-65
2021/12/23 02:50:42;;;;;;;;;50.25;43.00;;;;;4.11;58.77;101170.94;5081242;28;45261;-67
2021/12/23 02:53:07;;;;;;;;;56.75;44.50;;;;;4.04;58.33;101162.13;5081561;28;46528;-66
2021/12/23 02:55:32;;;;;;;;;48.00;41.00;;;;;4.09;58.99;101168.28;5081461;28;46057;-66
2021/12/23 02:57:58;;;;;;;;;45.00;40.50;;;;;4.12;58.36;101175.34;5082242;27;45476;-66
2021/12/23 03:00:23;;;;;;;;;49.25;41.00;;;;;4.06;58.71;101163.88;5081795;28;45571;-66
2021/12/23 03:02:49;;;;;;;;;57.75;40.50;;;;;4.03;58.36;101158.59;5080130;28;45467;-66
2021/12/23 03:05:14;;;;;;;;;52.50;44.50;;;;;4.09;58.40;101165.63;5081204;28;46012;-66
2021/12/23 03:07:39;;;;;;;;;55.75;44.00;;;;;4.13;58.23;101166.56;5081275;28;45878;-65
2021/12/23 03:10:07;;;;;;;;;50.00;42.25;;;;;4.13;58.90;101155.97;5081486;28;45303;-66
2021/12/23 03:12:32;;;;;;;;;57.75;44.00;;;;;4.17;58.66;101157.72;5081394;28;45292;-66
2021/12/23 03:14:59;;;;;;;;;46.25;35.50;;;;;4.17;58.70;101155.97;5081260;28;45477;-66
2021/12/23 03:17:25;;;;;;;;;49.50;43.25;;;;;4.20;58.02;101155.09;5082844;27;45281;-66
2021/12/23 03:19:50;;;;;;;;;49.00;41.50;;;;;4.19;58.23;101151.59;5081241;28;45886;-66
2021/12/23 03:22:15;;;;;;;;;53.50;43.00;;;;;4.20;58.93;101148.03;5080785;28;45483;-66
2021/12/23 03:24:41;;;;;;;;;57.50;46.75;;;;;4.17;58.63;101142.75;5081193;28;45268;-66
2021/12/23 03:27:06;;;;;;;;;48.25;43.00;;;;;4.18;58.61;101144.53;5081162;27;45295;-66
2021/12/23 03:29:31;;;;;;;;;57.50;44.75;;;;;4.19;58.79;101137.47;5081297;28;45264;-66
2021/12/23 03:31:57;;;;;;;;;58.50;43.25;;;;;4.21;58.94;101138.34;5080292;28;45389;-66
2021/12/23 03:34:22;;;;;;;;;50.50;44.25;;;;;4.19;58.56;101133.09;5083404;27;45491;-66
2021/12/23 03:36:48;;;;;;;;;46.50;40.00;;;;;4.17;58.60;101124.25;5081103;28;45296;-66
2021/12/23 03:39:13;;;;;;;;;48.75;40.75;;;;;4.14;58.57;101113.69;5081383;28;45384;-66
2021/12/23 03:41:39;;;;;;;;;54.25;42.00;;;;;4.22;58.75;101124.25;5079941;28;45510;-66
2021/12/23 03:44:04;;;;;;;;;45.50;37.00;;;;;4.25;58.47;101122.50;5080984;27;45981;-65
2021/12/23 03:46:30;;;;;;;;;55.00;44.25;;;;;4.24;58.89;101112.81;5081080;28;45364;-66
2021/12/23 03:48:55;;;;;;;;;56.00;43.00;;;;;4.27;58.13;101111.94;5080734;28;45401;-66
2021/12/23 03:51:20;;;;;;;;;50.50;43.00;;;;;4.31;58.84;101110.16;5084046;27;45551;-66
2021/12/23 03:53:46;;;;;;;;;54.75;43.75;;;;;4.26;58.42;101096.97;5079467;27;46190;-66
2021/12/23 03:56:11;;;;;;;;;53.50;42.00;;;;;4.25;58.06;101097.84;5079778;27;45510;-66
2021/12/23 03:58:37;;;;;;;;;57.00;43.75;;;;;4.28;58.38;101103.13;5080410;28;45460;-66
2021/12/23 04:01:04;;;;;;;;;53.00;42.75;;;;;4.25;59.20;101098.72;5080396;28;45240;-66
2021/12/23 04:03:29;;;;;;;;;46.75;37.00;;;;;4.25;58.29;101093.44;5071289;28;45505;-66
2021/12/23 04:05:55;;;;;;;;;61.50;44.25;;;;;4.28;58.80;101092.56;5080555;28;45219;-66
2021/12/23 04:08:20;;;;;;;;;61.00;45.50;;;;;4.27;58.36;101090.78;5079753;27;45367;-66
2021/12/23 04:10:45;;;;;;;;;57.00;45.25;;;;;4.30;58.70;101089.91;5080145;27;45346;-66
2021/12/23 04:13:11;;;;;;;;;55.75;42.50;;;;;4.30;58.94;101085.50;5080372;28;45390;-66
2021/12/23 04:15:37;;;;;;;;;51.50;44.00;;;;;4.26;58.66;101074.06;5080105;28;45380;-66
2021/12/23 04:18:03;;;;;;;;;58.00;46.25;;;;;4.36;58.85;101081.94;5080507;28;45313;-66
2021/12/23 04:20:35;;;;;;;;;53.25;42.75;;;;;4.39;58.87;101074.03;5079788;27;45371;-66
2021/12/23 04:23:03;;;;;;;;;59.00;44.50;;;;;4.39;58.57;101063.44;5079569;28;46538;-66
2021/12/23 04:25:29;;;;;;;;;57.00;45.25;;;;;4.37;58.30;101063.44;5087459;27;45901;-66
2021/12/23 04:27:58;;;;;;;;;50.75;43.75;;;;;4.38;58.73;101061.72;5080380;28;45421;-66
2021/12/23 04:30:24;;;;;;;;;56.00;43.50;;;;;4.34;58.28;101050.25;5079973;28;45438;-66
2021/12/23 04:32:50;;;;;;;;;50.50;42.75;;;;;4.40;58.82;101065.22;5078860;28;45264;-66
2021/12/23 04:35:15;;;;;;;;;48.50;41.50;;;;;4.38;58.61;101065.22;5079126;28;45301;-66
2021/12/23 04:37:42;;;;;;;;;54.25;43.75;;;;;4.43;58.96;101070.50;5080119;28;45856;-66
2021/12/23 04:40:09;;;;;;;;;50.25;45.50;;;;;4.44;58.66;101061.69;5078585;27;45521;-65
2021/12/23 04:42:36;;;;;;;;;52.00;43.75;;;;;4.44;58.68;101056.38;5078984;28;46197;-66
2021/12/23 04:45:03;;;;;;;;;55.50;46.25;;;;;4.43;58.75;101049.38;5080116;28;45436;-66
2021/12/23 04:47:29;;;;;;;;;56.00;44.25;;;;;4.44;58.49;101052.00;5080100;28;45319;-66
2021/12/23 04:49:54;;;;;;;;;46.25;40.75;;;;;4.44;58.22;101057.28;5079140;28;45210;-66
2021/12/23 04:52:19;;;;;;;;;60.25;46.25;;;;;4.42;58.73;101047.59;5078354;28;45739;-66
2021/12/23 04:54:45;;;;;;;;;57.25;43.75;;;;;4.45;59.33;101056.38;5064227;28;45224;-66
2021/12/23 04:57:10;;;;;;;;;51.00;41.25;;;;;4.49;58.70;101057.25;5086012;27;45307;-66
2021/12/23 04:59:35;;;;;;;;;50.00;42.25;;;;;4.46;58.76;101044.06;5080854;27;45552;-66
2021/12/23 05:02:02;;;;;;;;;52.25;43.50;;;;;4.45;58.33;101043.19;5079390;27;46238;-66
2021/12/23 05:04:27;;;;;;;;;52.75;44.25;;;;;4.45;58.14;101043.19;5067476;28;45740;-66
2021/12/23 05:06:53;;;;;;;;;49.00;37.00;;;;;4.51;59.28;101042.31;5080138;28;45252;-66
2021/12/23 05:09:18;;;;;;;;;63.75;47.00;;;;;4.53;58.83;101034.38;5079712;28;45351;-66
2021/12/23 05:11:44;;;;;;;;;54.50;45.00;;;;;4.56;58.66;101039.63;5079514;28;45418;-66
2021/12/23 05:14:10;;;;;;;;;57.75;45.00;;;;;4.51;58.65;101041.41;5079021;27;45988;-66
2021/12/23 05:16:35;;;;;;;;;40.75;38.50;;;;;4.56;58.63;101044.91;5085881;27;45494;-66
2021/12/23 05:19:01;;;;;;;;;54.75;42.25;;;;;4.56;58.41;101045.81;5079504;28;45660;-66
2021/12/23 05:21:26;;;;;;;;;60.50;46.75;;;;;4.54;58.85;101042.25;5079243;28;45502;-66
2021/12/23 05:23:51;;;;;;;;;54.00;43.25;;;;;4.54;58.42;101033.47;5079049;28;45498;-66
2021/12/23 05:26:17;;;;;;;;;46.00;41.25;;;;;4.55;58.80;101027.31;5079477;28;45335;-66
2021/12/23 05:28:42;;;;;;;;;56.75;45.75;;;;;4.52;58.26;101012.31;5079606;28;45446;-66
2021/12/23 05:31:08;;;;;;;;;60.00;43.00;;;;;4.57;58.65;101025.53;5078950;27;45917;-66
2021/12/23 05:33:34;;;;;;;;;51.25;42.00;;;;;4.50;58.66;101010.56;5078600;27;45815;-66
2021/12/23 05:36:00;;;;;;;;;59.50;45.75;;;;;4.55;59.02;101022.00;5079487;28;45228;-66
2021/12/23 05:38:25;;;;;;;;;51.25;40.25;;;;;4.52;58.65;101007.03;5079406;27;45423;-66
2021/12/23 05:40:51;;;;;;;;;62.50;43.75;;;;;4.55;59.46;101007.03;5079105;28;45201;-66
2021/12/23 05:43:16;;;;;;;;;52.50;42.75;;;;;4.54;59.35;101010.53;5078675;27;45422;-66
2021/12/23 05:45:42;;;;;;;;;40.75;38.75;;;;;4.51;58.48;100999.09;5078952;28;45331;-66
2021/12/23 05:48:07;;;;;;;;;48.25;42.25;;;;;4.55;59.12;101001.72;5080249;27;45514;-66
2021/12/23 05:50:33;;;;;;;;;57.25;43.50;;;;;4.56;58.75;101003.50;5079021;28;45587;-66
2021/12/23 05:52:59;;;;;;;;;55.50;42.75;;;;;4.56;58.98;100999.97;5078802;28;45470;-66
2021/12/23 05:55:25;;;;;;;;;52.00;43.25;;;;;4.52;58.83;101000.88;5081864;28;45327;-66
2021/12/23 05:57:51;;;;;;;;;61.25;47.50;;;;;4.48;58.54;100994.72;5082409;27;45261;-66
2021/12/23 06:00:26;;;;;;;;;7.25;5.00;;;;;4.49;58.94;101009.66;5082367;28;46247;-66
2021/12/23 06:02:53;;;;;;;;;40.00;36.25;;;;;4.44;58.85;101004.44;5081954;27;45900;-66
2021/12/23 06:05:19;;;;;;;;;52.00;44.50;;;;;4.47;59.29;101010.59;5086532;27;49324;-66
2021/12/23 06:07:45;;;;;;;;;52.50;43.75;;;;;4.38;59.52;100991.22;5082714;27;45221;-66
2021/12/23 06:10:11;;;;;;;;;51.50;41.50;;;;;4.44;59.10;101004.44;5081880;27;46013;-66
2021/12/23 06:12:36;;;;;;;;;51.75;44.25;;;;;4.45;59.51;101000.88;5081731;27;45240;-66
2021/12/23 06:15:03;;;;;;;;;60.50;46.50;;;;;4.49;58.79;101006.16;5082790;28;45232;-66
2021/12/23 06:17:29;;;;;;;;;60.25;45.00;;;;;4.47;59.68;101002.66;5082613;28;45312;-66
2021/12/23 06:19:54;;;;;;;;;54.50;42.75;;;;;4.50;59.82;101015.88;5082889;27;45791;-66
2021/12/23 06:22:20;;;;;;;;;54.50;41.50;;;;;4.46;59.82;101004.44;5082190;27;45314;-66
2021/12/23 06:24:47;;;;;;;;;53.75;44.25;;;;;4.45;60.01;100995.59;5081729;28;46444;-66
2021/12/23 06:27:15;;;;;;;;;61.50;48.00;;;;;4.44;59.71;100996.50;5074660;27;45388;-66
2021/12/23 06:29:40;;;;;;;;;58.25;46.25;;;;;4.48;59.70;100999.09;5081845;27;45314;-66
2021/12/23 06:32:06;;;;;;;;;54.25;45.50;;;;;4.46;59.25;101001.78;5081085;27;45225;-66
2021/12/23 06:34:31;;;;;;;;;56.50;47.25;;;;;4.44;59.92;101001.78;5081142;28;45461;-66
2021/12/23 06:36:57;;;;;;;;;52.75;45.75;;;;;4.48;59.19;101010.56;5081639;28;45534;-66
2021/12/23 06:39:22;;;;;;;;;60.25;45.25;;;;;4.45;59.72;101000.88;5084975;27;45342;-66
2021/12/23 06:41:48;;;;;;;;;55.00;45.50;;;;;4.44;59.45;100998.22;5081465;27;45329;-66
2021/12/23 06:44:13;;;;;;;;;59.50;45.75;;;;;4.45;59.78;101002.66;5081497;28;45442;-65
2021/12/23 06:46:38;;;;;;;;;61.00;48.00;;;;;4.45;59.12;101007.94;5081446;28;45632;-66
2021/12/23 06:49:04;;;;;;;;;62.00;49.25;;;;;4.50;59.13;101005.28;5081580;28;46762;-66
2021/12/23 06:51:29;;;;;;;;;63.50;48.00;;;;;4.53;60.31;101003.50;5081329;27;45374;-66
2021/12/23 06:53:57;;;;;;;;;62.50;48.25;;;;;4.52;59.83;100995.59;5081221;27;45505;-66
2021/12/23 06:56:25;;;;;;;;;57.50;43.00;;;;;4.49;59.90;100985.00;5087623;27;45309;-66
2021/12/23 06:58:51;;;;;;;;;50.50;42.50;;;;;4.59;59.75;101000.84;5081833;28;45363;-66
2021/12/23 07:01:18;;;;;;;;;60.25;48.25;;;;;4.67;60.07;101006.09;5080987;27;45495;-66
2021/12/23 07:04:32;;;;;;;;;56.75;43.00;;;;;4.63;59.68;101001.72;5081073;27;45461;-66
2021/12/23 07:06:32;;;;;;;;;63.25;51.50;;;;;4.61;59.55;100996.44;5073384;27;45438;-66
2021/12/23 07:08:58;;;;;;;;;57.75;47.00;;;;;4.74;60.11;101017.53;5081663;27;45465;-66
2021/12/23 07:11:24;;;;;;;;;60.25;46.25;;;;;4.70;59.63;101010.50;5079888;27;45820;-66
2021/12/23 07:13:50;;;;;;;;;59.50;47.00;;;;;4.77;60.14;101020.16;5081195;27;45304;-66
2021/12/23 07:16:15;;;;;;;;;56.00;43.25;;;;;4.76;59.93;101013.09;5081316;28;45310;-66
2021/12/23 07:18:41;;;;;;;;;52.00;45.00;;;;;4.74;58.99;101007.81;5080619;28;45261;-66
2021/12/23 07:21:06;;;;;;;;;51.25;41.75;;;;;4.71;59.44;100999.03;5081033;28;45406;-66
2021/12/23 07:23:31;;;;;;;;;58.00;45.50;;;;;4.83;58.94;101017.50;5081189;28;45438;-66
2021/12/23 07:25:57;;;;;;;;;58.25;47.00;;;;;4.82;59.66;101016.59;5080997;27;45444;-66
2021/12/23 07:28:22;;;;;;;;;53.25;41.50;;;;;4.83;60.28;101013.09;5080813;27;46214;-66
2021/12/23 07:30:47;;;;;;;;;67.00;43.50;;;;;4.81;59.75;101011.31;5062240;28;45330;-66
2021/12/23 07:33:13;;;;;;;;;60.25;45.25;;;;;4.83;59.52;101021.03;5080765;28;45200;-66
2021/12/23 07:35:39;;;;;;;;;57.75;45.75;;;;;4.84;59.33;101013.97;5081096;28;45256;-66
2021/12/23 07:38:05;;;;;;;;;55.00;45.75;;;;;4.82;60.13;101013.97;5080832;27;45477;-66
2021/12/23 07:40:31;;;;;;;;;53.25;42.25;;;;;4.85;59.13;101020.16;5078378;27;45342;-66
2021/12/23 07:43:08;;;;;;;;;53.50;43.25;;;;;4.88;59.81;101026.31;5079127;28;45509;-66
2021/12/23 07:45:33;;;;;;;;;51.75;46.00;;;;;4.88;60.09;101020.09;5081245;28;45376;-66
2021/12/23 07:47:59;;;;;;;;;60.75;47.25;;;;;4.93;60.18;101021.88;5080645;28;45346;-66
2021/12/23 07:50:24;;;;;;;;;57.00;45.50;;;;;4.99;59.53;101029.78;5080464;27;45415;-66
2021/12/23 07:52:50;;;;;;;;;50.25;42.25;;;;;4.96;60.09;101020.94;5061636;28;45189;-66
2021/12/23 07:55:15;;;;;;;;;55.00;43.75;;;;;5.04;59.72;101028.88;5080456;28;45597;-66
2021/12/23 07:57:41;;;;;;;;;53.00;46.25;;;;;4.96;59.06;101013.91;5078026;27;46198;-66
2021/12/23 08:00:07;;;;;;;;;46.25;39.75;;;;;5.08;59.21;101022.66;5080920;28;45307;-66
2021/12/23 08:02:32;;;;;;;;;55.25;45.50;;;;;5.11;59.99;101020.91;5080026;27;45248;-66
2021/12/23 08:04:57;;;;;;;;;56.75;42.00;;;;;5.12;59.51;101013.84;5080160;28;45244;-66
2021/12/23 08:07:23;;;;;;;;;61.25;48.50;;;;;5.13;59.49;101020.91;5079784;28;45958;-66
2021/12/23 08:09:48;;;;;;;;;61.50;44.25;;;;;5.17;60.14;101031.44;5078624;28;45441;-66
2021/12/23 08:12:14;;;;;;;;;59.00;47.00;;;;;5.18;59.61;101024.41;5080209;27;45395;-66
2021/12/23 08:14:39;;;;;;;;;55.00;42.50;;;;;5.16;59.74;101016.47;5080481;27;46942;-66
2021/12/23 08:17:04;;;;;;;;;57.25;43.50;;;;;5.24;60.24;101020.81;5078914;28;45371;-66
2021/12/23 08:19:30;;;;;;;;;54.00;41.25;;;;;5.24;59.43;101010.22;5079771;28;45455;-66
2021/12/23 08:21:55;;;;;;;;;56.25;42.50;;;;;5.26;59.82;101009.34;5078564;27;45500;-66
2021/12/23 08:24:20;;;;;;;;;58.75;45.75;;;;;5.28;59.80;101019.91;5077884;27;45428;-66
2021/12/23 08:26:51;;;;;;;;;57.75;45.25;;;;;5.30;59.61;101015.50;5078625;28;46009;-65
2021/12/23 08:29:18;;;;;;;;;60.50;47.50;;;;;5.33;59.54;101020.75;5079145;28;45463;-66
2021/12/23 08:31:45;;;;;;;;;56.75;47.00;;;;;5.30;59.98;101015.50;5079241;28;45351;-66
2021/12/23 08:34:11;;;;;;;;;60.75;44.00;;;;;5.38;59.50;101016.31;5078662;28;45607;-66
2021/12/23 08:36:36;;;;;;;;;66.50;49.25;;;;;5.40;59.98;101017.19;5079269;28;47318;-66
2021/12/23 08:39:02;;;;;;;;;63.50;50.00;;;;;5.43;59.95;101008.34;5079218;28;45330;-66
2021/12/23 08:41:27;;;;;;;;;56.00;47.25;;;;;5.37;59.67;100999.53;5078246;27;45502;-66
2021/12/23 08:43:53;;;;;;;;;57.75;44.75;;;;;5.47;59.46;101015.38;5079115;27;46427;-66
2021/12/23 08:46:18;;;;;;;;;50.25;45.25;;;;;5.46;59.43;101006.53;5079211;28;46300;-66
2021/12/23 08:48:44;;;;;;;;;59.00;46.25;;;;;5.47;59.40;101003.00;5080750;27;45415;-66
2021/12/23 08:51:09;;;;;;;;;58.50;44.75;;;;;5.48;59.60;101003.88;5091955;27;45240;-66
2021/12/23 08:53:34;;;;;;;;;59.00;46.25;;;;;5.50;59.40;100996.81;5080305;27;45309;-66
2021/12/23 08:56:00;;;;;;;;;57.75;48.00;;;;;5.53;59.57;101002.06;5084323;27;45228;-66
2021/12/23 08:58:25;;;;;;;;;57.00;45.00;;;;;5.56;59.54;100999.41;5080209;27;45325;-66
2021/12/23 09:00:50;;;;;;;;;60.00;48.25;;;;;5.57;60.27;100998.53;5080196;28;45199;-66
2021/12/23 09:03:16;;;;;;;;;56.25;44.50;;;;;5.62;59.50;100996.72;5079557;28;45314;-66
2021/12/23 09:05:42;;;;;;;;;54.00;43.50;;;;;5.65;60.02;100998.47;5083383;27;45551;-66
2021/12/23 09:08:09;;;;;;;;;60.25;46.25;;;;;5.69;60.02;101000.19;5081447;27;46343;-66
2021/12/23 09:10:34;;;;;;;;;61.00;50.25;;;;;5.66;59.86;100989.63;5078457;27;45564;-66
2021/12/23 09:13:00;;;;;;;;;57.00;43.50;;;;;5.70;59.49;100996.66;5082893;27;45540;-66
2021/12/23 09:15:26;;;;;;;;;66.00;50.50;;;;;5.74;59.29;100993.09;5079647;28;45342;-66
2021/12/23 09:17:51;;;;;;;;;56.25;43.75;;;;;5.76;59.38;100996.59;5085180;27;45294;-67
2021/12/23 09:20:18;;;;;;;;;55.50;45.00;;;;;5.79;59.58;101004.53;5082130;27;45450;-67
2021/12/23 09:22:44;;;;;;;;;61.50;47.75;;;;;5.84;60.03;101018.59;5081991;27;45434;-67
2021/12/23 09:25:19;;;;;;;;;57.75;47.75;;;;;5.84;59.89;101007.13;5084375;27;45275;-67
2021/12/23 09:28:18;;;;;;;;;58.50;47.00;;;;;5.87;60.52;101013.28;5082084;27;45377;-68
2021/12/23 09:33:16;;;;;;;;;56.00;45.50;;;;;5.93;60.48;101010.59;5083059;27;45291;-67
2021/12/23 09:35:41;;;;;;;;;54.25;45.00;;;;;5.97;60.11;101002.66;5079552;27;45517;-67
2021/12/23 09:38:08;;;;;;;;;51.50;41.00;;;;;5.99;60.00;101009.69;5086699;27;45461;-67
2021/12/23 09:40:35;;;;;;;;;48.00;40.00;;;;;6.01;60.11;101001.72;5086290;27;45366;-67
2021/12/23 09:43:05;;;;;;;;;53.75;43.00;;;;;6.04;60.29;101005.22;5083104;28;45500;-67
2021/12/23 09:45:31;;;;;;;;;50.00;41.25;;;;;6.09;61.02;101011.34;5083021;28;45339;-67
2021/12/23 09:47:58;;;;;;;;;49.75;40.75;;;;;6.15;60.59;101004.22;5086745;27;45840;-67
2021/12/23 09:50:28;;;;;;;;;53.75;43.00;;;;;6.18;59.89;101005.09;5080827;27;45750;-67
2021/12/23 09:52:54;;;;;;;;;52.50;42.75;;;;;6.21;60.31;100989.13;5086618;27;45469;-67
2021/12/23 09:55:25;;;;;;;;;57.75;42.00;;;;;6.30;60.15;100993.50;5083968;27;46105;-67
2021/12/23 09:57:52;;;;;;;;;48.00;38.75;;;;;6.33;60.62;100992.56;5078723;27;45991;-67
2021/12/23 10:00:22;;;;;;;;;44.75;40.50;;;;;6.32;59.96;100989.03;5092246;27;45256;-68
2021/12/23 10:02:48;;;;;;;;;50.75;42.00;;;;;6.37;60.53;100994.31;5092064;27;45399;-67
2021/12/23 10:05:17;;;;;;;;;43.00;38.00;;;;;6.36;60.72;100984.56;5075176;27;46158;-67
2021/12/23 10:07:45;;;;;;;;;48.00;41.50;;;;;6.41;60.86;100990.72;5082074;27;45383;-67
2021/12/23 10:10:17;;;;;;;;;42.25;37.50;;;;;6.41;60.51;100988.06;5082644;28;45403;-67
2021/12/23 10:31:47;;;;;;;;;52.00;38.75;;;;;6.68;60.73;100966.53;5078247;28;45306;-67
2021/12/23 10:37:22;;;;;;;;;47.00;39.75;;;;;6.74;61.36;100960.25;5077420;27;46053;-67
2021/12/23 10:40:07;;;;;;;;;48.25;41.75;;;;;6.78;61.00;100958.41;5088244;27;45920;-66
2021/12/23 10:42:33;;;;;;;;;46.00;39.25;;;;;6.82;61.32;100950.41;5075967;27;45144;-70
2021/12/23 10:45:02;;;;;;;;;43.75;39.50;;;;;6.88;61.37;100944.13;5082039;27;45596;-68
2021/12/23 10:50:44;;;;;;;;;32.25;32.25;;;;;7.00;62.21;100933.34;5081256;28;45676;-69
2021/12/23 10:53:25;;;;;;;;;35.00;35.00;;;;;7.02;61.87;100917.41;5079084;27;45535;-69
2021/12/23 10:59:18;;;;;;;;;39.50;36.25;;;;;7.15;61.69;100928.69;5087712;27;45781;-68
2021/12/23 11:02:07;;;;;;;;;40.25;38.00;;;;;7.20;61.74;100925.09;5081914;28;45165;-70
2021/12/23 11:04:52;;;;;;;;;38.00;36.75;;;;;7.19;62.16;100903.88;5079138;28;45312;-68
2021/12/23 11:07:24;;;;;;;;;42.25;33.25;;;;;7.25;62.27;100911.75;5081763;28;45175;-68
2021/12/23 11:10:15;;;;;;;;;37.75;36.25;;;;;7.32;62.03;100912.53;5081844;27;47285;-68
2021/12/23 11:36:04;;;;;;;;;38.00;34.00;;;;;7.64;62.62;100880.09;5069743;28;45395;-68
2021/12/23 11:41:19;;;;;;;;;33.75;32.75;;;;;7.75;62.67;100878.13;5079022;28;45359;-68
2021/12/23 11:43:51;;;;;;;;;41.00;34.50;;;;;7.76;62.31;100884.31;5074615;28;46063;-68
2021/12/23 11:46:26;;;;;;;;;40.00;30.50;;;;;7.86;62.62;100891.19;5076311;27;45442;-68
2021/12/23 11:48:54;;;;;;;;;38.75;34.25;;;;;7.86;62.56;100877.03;5075014;28;45357;-70
2021/12/23 11:51:33;;;;;;;;;29.75;28.50;;;;;7.95;62.99;100877.75;5070945;28;45150;-66
2021/12/23 11:54:02;;;;;;;;;31.25;30.25;;;;;8.00;62.88;100874.97;5082624;27;47000;-68
2021/12/23 11:56:29;;;;;;;;;38.50;34.75;;;;;8.01;62.87;100876.75;5081569;27;45855;-69
2021/12/23 11:58:58;;;;;;;;;32.75;30.75;;;;;8.06;62.87;100877.53;5084595;27;45402;-67
2021/12/23 12:01:28;;;;;;;;;35.00;27.50;;;;;8.10;63.41;100865.94;5085498;27;45395;-66
2021/12/23 12:03:58;;;;;;;;;36.00;32.50;;;;;8.11;63.00;100862.34;5076419;27;47081;-66
2021/12/23 12:06:39;;;;;;;;;37.25;31.25;;;;;8.16;63.11;100870.25;5075616;28;45652;-65
2021/12/23 12:09:28;;;;;;;;;34.75;29.75;;;;;8.19;62.98;100856.03;5085181;27;45502;-65
2021/12/23 12:11:56;;;;;;;;;34.25;32.00;;;;;8.24;63.40;100857.66;5079208;27;45319;-66
2021/12/23 12:14:41;;;;;;;;;41.75;36.50;;;;;8.26;63.22;100847.00;5070254;28;46392;-66
2021/12/23 12:17:25;;;;;;;;;35.75;31.50;;;;;8.33;63.52;100838.84;5086244;27;45718;-67
2021/12/23 12:20:01;;;;;;;;;40.25;34.75;;;;;8.39;63.76;100843.16;5071468;27;45181;-67
2021/12/23 12:22:44;;;;;;;;;31.25;29.75;;;;;8.43;63.41;100828.91;5069042;28;45316;-67